createdAt,value
2022-12-08T00:01:56.787Z,1.95
2022-12-08T00:04:25.110Z,1.93
2022-12-08T00:07:12.056Z,1.92
2022-12-08T00:09:42.237Z,1.89
2022-12-08T00:12:11.937Z,1.87
2022-12-08T00:14:45.375Z,1.85
2022-12-08T00:17:15.707Z,1.82
2022-12-08T00:19:44.489Z,1.78
2022-12-08T00:22:14.856Z,1.74
2022-12-08T00:24:47.509Z,1.71
2022-12-08T00:27:16.291Z,1.69
2022-12-08T00:29:45.650Z,1.67
2022-12-08T00:32:14.354Z,1.64
2022-12-08T00:34:42.712Z,1.63
2022-12-08T00:37:10.911Z,1.63
2022-12-08T00:39:39.085Z,1.62
2022-12-08T00:42:13.499Z,1.63
2022-12-08T00:44:44.660Z,1.63
2022-12-08T00:47:13.989Z,1.64
2022-12-08T00:49:42.394Z,1.65
2022-12-08T00:52:10.648Z,1.65
2022-12-08T00:54:38.778Z,1.65
2022-12-08T00:57:07.129Z,1.67
2022-12-08T00:59:35.341Z,1.67
2022-12-08T01:02:03.538Z,1.68
2022-12-08T01:04:31.740Z,1.69
2022-12-08T01:06:59.877Z,1.69
2022-12-08T01:09:27.996Z,1.70
2022-12-08T01:11:56.291Z,1.72
2022-12-08T01:14:24.530Z,1.73
2022-12-08T01:16:52.945Z,1.73
2022-12-08T01:19:21.655Z,1.74
2022-12-08T01:21:49.748Z,1.73
2022-12-08T01:24:21.259Z,1.72
2022-12-08T01:26:50.851Z,1.69
2022-12-08T01:29:19.159Z,1.66
2022-12-08T01:31:47.355Z,1.63
2022-12-08T01:34:15.574Z,1.61
2022-12-08T01:36:44.571Z,1.58
2022-12-08T01:39:18.438Z,1.55
2022-12-08T01:41:47.773Z,1.52
2022-12-08T01:44:15.874Z,1.49
2022-12-08T01:46:45.857Z,1.45
2022-12-08T01:49:22.260Z,1.42
2022-12-08T01:52:02.565Z,1.39
2022-12-08T01:54:37.333Z,1.37
2022-12-08T01:57:18.816Z,1.35
2022-12-08T01:59:57.089Z,1.33
2022-12-08T02:02:31.292Z,1.30
2022-12-08T02:05:00.236Z,1.29
2022-12-08T02:07:28.494Z,1.28
2022-12-08T02:09:57.662Z,1.27
2022-12-08T02:12:25.968Z,1.25
2022-12-08T02:14:54.127Z,1.24
2022-12-08T02:17:40.897Z,1.23
2022-12-08T02:20:31.257Z,1.23
2022-12-08T02:23:14.145Z,1.25
2022-12-08T02:26:10.152Z,1.26
2022-12-08T02:28:48.244Z,1.26
2022-12-08T02:31:38.004Z,1.24
2022-12-08T02:34:18.854Z,1.24
2022-12-08T02:36:52.804Z,1.23
2022-12-08T02:39:35.989Z,1.23
2022-12-08T02:42:28.069Z,1.23
2022-12-08T02:45:20.584Z,1.24
2022-12-08T02:47:49.840Z,1.25
2022-12-08T02:50:18.983Z,1.25
2022-12-08T02:52:48.128Z,1.25
2022-12-08T02:55:28.458Z,1.25
2022-12-08T02:58:21.275Z,1.25
2022-12-08T03:01:13.390Z,1.25
2022-12-08T03:04:08.851Z,1.24
2022-12-08T03:06:54.596Z,1.23
2022-12-08T03:09:41.496Z,1.22
2022-12-08T03:12:23.548Z,1.19
2022-12-08T03:14:54.708Z,1.17
2022-12-08T03:17:26.660Z,1.14
2022-12-08T03:19:57.514Z,1.12
2022-12-08T03:22:27.869Z,1.10
2022-12-08T03:24:57.265Z,1.08
2022-12-08T03:27:29.653Z,1.06
2022-12-08T03:29:59.308Z,1.05
2022-12-08T03:32:34.617Z,1.03
2022-12-08T03:35:07.560Z,1.01
2022-12-08T03:37:40.006Z,0.99
2022-12-08T03:40:11.360Z,0.96
2022-12-08T03:42:39.601Z,0.94
2022-12-08T03:45:07.912Z,0.92
2022-12-08T03:47:36.818Z,0.91
2022-12-08T03:50:05.916Z,0.91
2022-12-08T03:52:34.200Z,0.90
2022-12-08T03:55:02.359Z,0.91
2022-12-08T03:57:30.744Z,0.92
2022-12-08T03:59:58.876Z,0.93
2022-12-08T04:02:27.072Z,0.93
2022-12-08T04:04:55.343Z,0.94
2022-12-08T04:07:23.542Z,0.94
2022-12-08T04:09:51.673Z,0.95
2022-12-08T04:12:19.872Z,0.95
2022-12-08T04:14:48.094Z,0.95
2022-12-08T04:17:16.346Z,0.94
2022-12-08T04:19:44.604Z,0.95
2022-12-08T04:22:12.757Z,0.95
2022-12-08T04:24:40.915Z,0.94
2022-12-08T04:27:09.081Z,0.95
2022-12-08T04:29:37.201Z,0.94
2022-12-08T04:32:05.675Z,0.95
2022-12-08T04:34:33.924Z,0.96
2022-12-08T04:37:02.076Z,0.96
2022-12-08T04:39:30.235Z,0.97
2022-12-08T04:41:58.640Z,0.97
2022-12-08T04:44:26.768Z,0.97
2022-12-08T04:46:56.048Z,0.99
2022-12-08T04:49:24.355Z,0.99
2022-12-08T04:51:52.596Z,1.01
2022-12-08T04:54:20.751Z,1.02
2022-12-08T04:56:48.995Z,1.03
2022-12-08T04:59:17.159Z,1.07
2022-12-08T05:01:45.372Z,1.10
2022-12-08T05:04:13.684Z,1.11
2022-12-08T05:06:41.943Z,1.14
2022-12-08T05:09:10.442Z,1.14
2022-12-08T05:11:48.317Z,1.18
2022-12-08T05:14:18.699Z,1.22
2022-12-08T05:16:47.975Z,1.25
2022-12-08T05:19:17.537Z,1.26
2022-12-08T05:21:45.704Z,1.26
2022-12-08T05:24:13.887Z,1.27
2022-12-08T05:26:41.933Z,1.26
2022-12-08T05:29:10.057Z,1.26
2022-12-08T05:31:38.338Z,1.25
2022-12-08T05:34:06.503Z,1.25
2022-12-08T05:36:34.782Z,1.24
2022-12-08T05:39:03.028Z,1.24
2022-12-08T05:41:31.348Z,1.23
2022-12-08T05:43:59.475Z,1.23
2022-12-08T05:46:27.729Z,1.22
2022-12-08T05:48:55.812Z,1.21
2022-12-08T05:51:24.521Z,1.20
2022-12-08T05:53:53.233Z,1.20
2022-12-08T05:56:21.902Z,1.19
2022-12-08T05:58:50.337Z,1.20
2022-12-08T06:01:28.179Z,1.20
2022-12-08T06:04:00.421Z,1.19
2022-12-08T06:06:29.568Z,1.18
2022-12-08T06:08:59.164Z,1.16
2022-12-08T06:11:29.867Z,1.14
2022-12-08T06:13:58.457Z,1.11
2022-12-08T06:16:28.635Z,1.09
2022-12-08T06:18:57.208Z,1.06
2022-12-08T06:21:25.470Z,1.04
2022-12-08T06:23:54.598Z,1.02
2022-12-08T06:26:22.957Z,1.00
2022-12-08T06:28:51.898Z,0.99
2022-12-08T06:31:25.445Z,0.98
2022-12-08T06:33:55.131Z,0.97
2022-12-08T06:36:26.285Z,0.94
2022-12-08T06:38:54.753Z,0.91
2022-12-08T06:41:23.125Z,0.90
2022-12-08T06:43:51.710Z,0.88
2022-12-08T06:46:20.432Z,0.86
2022-12-08T06:48:52.979Z,0.85
2022-12-08T06:51:23.648Z,0.84
2022-12-08T06:53:51.877Z,0.85
2022-12-08T06:56:20.575Z,0.83
2022-12-08T06:58:52.460Z,0.82
2022-12-08T07:01:21.843Z,0.84
2022-12-08T07:03:50.134Z,0.87
2022-12-08T07:06:23.414Z,0.92
2022-12-08T07:08:51.748Z,0.97
2022-12-08T07:11:22.327Z,1.03
2022-12-08T07:13:51.297Z,1.09
2022-12-08T07:16:19.673Z,1.14
2022-12-08T07:18:48.206Z,1.19
2022-12-08T07:21:17.976Z,1.24
2022-12-08T07:23:50.224Z,1.29
2022-12-08T07:26:22.515Z,1.35
2022-12-08T07:28:50.671Z,1.40
2022-12-08T07:31:22.509Z,1.46
2022-12-08T07:33:52.533Z,1.50
2022-12-08T07:36:21.883Z,1.53
2022-12-08T07:38:51.268Z,1.56
2022-12-08T07:41:23.637Z,1.59
2022-12-08T07:43:53.810Z,1.62
2022-12-08T07:46:24.795Z,1.65
2022-12-08T07:48:54.660Z,1.69
2022-12-08T07:51:25.128Z,1.72
2022-12-08T07:53:55.197Z,1.76
2022-12-08T07:56:24.171Z,1.79
2022-12-08T07:58:52.621Z,1.81
2022-12-08T08:01:26.020Z,1.83
2022-12-08T08:04:01.529Z,1.86
2022-12-08T08:06:31.396Z,1.89
2022-12-08T08:09:01.169Z,1.93
2022-12-08T08:11:30.897Z,1.96
2022-12-08T08:13:59.255Z,1.98
2022-12-08T08:16:28.506Z,2.00
2022-12-08T08:18:58.403Z,2.02
2022-12-08T08:21:45.194Z,2.03
2022-12-08T08:24:14.487Z,2.04
2022-12-08T08:26:42.724Z,2.07
2022-12-08T08:29:10.972Z,2.10
2022-12-08T08:31:39.463Z,2.15
2022-12-08T08:34:09.267Z,2.20
2022-12-08T08:36:37.728Z,2.25
2022-12-08T08:39:06.111Z,2.31
2022-12-08T08:41:35.523Z,2.35
2022-12-08T08:44:04.408Z,2.38
2022-12-08T08:46:33.255Z,2.43
2022-12-08T08:49:01.700Z,2.47
2022-12-08T08:51:32.881Z,2.49
2022-12-08T08:54:01.283Z,2.52
2022-12-08T08:56:30.687Z,2.57
2022-12-08T08:58:59.019Z,2.64
2022-12-08T09:01:28.584Z,2.70
2022-12-08T09:03:57.525Z,2.78
2022-12-08T09:06:28.224Z,2.88
2022-12-08T09:08:56.813Z,2.97
2022-12-08T09:11:25.150Z,3.05
2022-12-08T09:13:54.947Z,3.13
2022-12-08T09:16:23.990Z,3.21
2022-12-08T09:18:52.420Z,3.35
2022-12-08T09:21:23.839Z,3.50
2022-12-08T09:24:00.524Z,3.64
2022-12-08T09:26:31.975Z,3.79
2022-12-08T09:29:03.949Z,3.96
2022-12-08T09:31:33.888Z,4.14
2022-12-08T09:34:04.334Z,4.30
2022-12-08T09:36:35.105Z,4.42
2022-12-08T09:39:07.336Z,4.52
2022-12-08T09:41:51.892Z,4.59
2022-12-08T09:44:37.431Z,4.59
2022-12-08T09:47:38.607Z,4.56
2022-12-08T09:50:41.044Z,4.51
2022-12-08T09:53:21.793Z,4.47
2022-12-08T09:56:00.549Z,4.45
2022-12-08T09:58:50.509Z,4.45
2022-12-08T10:01:28.137Z,4.44
2022-12-08T10:03:59.668Z,4.41
2022-12-08T10:06:46.593Z,4.39
2022-12-08T10:09:31.092Z,4.38
2022-12-08T10:12:26.411Z,4.39
2022-12-08T10:15:25.605Z,4.44
2022-12-08T10:18:07.231Z,4.47
2022-12-08T10:20:47.820Z,4.50
2022-12-08T10:23:31.375Z,4.52
2022-12-08T10:26:26.153Z,4.54
2022-12-08T10:29:03.026Z,4.54
2022-12-08T10:31:42.362Z,4.52
2022-12-08T10:34:16.701Z,4.48
2022-12-08T10:36:56.429Z,4.45
2022-12-08T10:39:45.848Z,4.44
2022-12-08T10:42:14.259Z,4.43
2022-12-08T10:45:15.333Z,4.41
2022-12-08T10:48:03.048Z,4.38
2022-12-08T10:51:11.281Z,4.35
2022-12-08T10:54:03.206Z,4.33
2022-12-08T11:00:13.934Z,4.33
2022-12-08T11:06:19.000Z,4.26
2022-12-08T11:09:34.552Z,4.19
2022-12-08T11:12:18.015Z,4.11
2022-12-08T11:19:01.878Z,3.97
2022-12-08T11:22:03.096Z,3.90
2022-12-08T11:39:56.101Z,3.98
2022-12-08T11:43:43.764Z,4.00
2022-12-08T11:47:07.147Z,4.00
2022-12-08T12:02:18.158Z,3.88
2022-12-08T12:05:39.919Z,3.84
2022-12-08T12:13:54.233Z,3.84
2022-12-08T12:35:19.506Z,4.25
2022-12-08T12:43:41.841Z,4.45
2022-12-08T13:21:36.529Z,4.74
2022-12-08T13:24:54.657Z,4.63
2022-12-08T13:28:31.512Z,4.53
2022-12-08T13:32:28.341Z,4.45
2022-12-08T13:35:38.981Z,4.34
2022-12-08T13:43:04.216Z,4.15
2022-12-08T13:47:24.581Z,4.07
2022-12-08T13:58:35.887Z,3.88
2022-12-08T14:03:23.822Z,3.81
2022-12-08T14:10:13.329Z,3.71
2022-12-08T14:13:46.614Z,3.65
2022-12-08T14:20:17.029Z,3.65
2022-12-08T14:33:49.399Z,3.48
2022-12-08T14:36:43.747Z,3.45
2022-12-08T14:39:10.828Z,3.43
2022-12-08T14:41:38.841Z,3.41
2022-12-08T14:44:24.092Z,3.40
2022-12-08T14:47:10.260Z,3.38
2022-12-08T14:49:39.007Z,3.37
2022-12-08T14:52:10.897Z,3.35
2022-12-08T14:54:42.360Z,3.34
2022-12-08T14:57:14.432Z,3.31
2022-12-08T14:59:42.978Z,3.30
2022-12-08T15:02:12.813Z,3.28
2022-12-08T15:04:47.224Z,3.26
2022-12-08T15:07:17.509Z,3.25
2022-12-08T15:10:05.786Z,3.23
2022-12-08T15:12:32.918Z,3.21
2022-12-08T15:15:08.884Z,3.18
2022-12-08T15:17:48.605Z,3.16
2022-12-08T15:20:25.195Z,3.14
2022-12-08T15:22:55.724Z,3.12
2022-12-08T15:25:24.555Z,3.10
2022-12-08T15:27:56.473Z,3.08
2022-12-08T15:30:28.372Z,3.05
2022-12-08T15:32:55.812Z,3.03
2022-12-08T15:35:22.548Z,3.00
2022-12-08T15:37:49.418Z,2.98
2022-12-08T15:40:19.451Z,2.95
2022-12-08T15:42:46.444Z,2.93
2022-12-08T15:45:15.257Z,2.90
2022-12-08T15:47:43.821Z,2.87
2022-12-08T15:50:19.607Z,2.86
2022-12-08T15:52:46.904Z,2.83
2022-12-08T15:55:15.612Z,2.80
2022-12-08T15:58:51.934Z,2.78
2022-12-08T16:00:52.286Z,2.75
2022-12-08T16:07:12.351Z,2.72
2022-12-08T16:09:40.723Z,2.70
2022-12-08T16:13:26.874Z,2.68
2022-12-08T16:18:22.768Z,2.63
2022-12-08T16:23:44.892Z,2.61
2022-12-08T16:27:21.884Z,2.61
2022-12-08T16:29:19.804Z,2.60
2022-12-08T16:31:46.741Z,2.58
2022-12-08T16:34:14.012Z,2.57
2022-12-08T16:36:40.846Z,2.57
2022-12-08T16:39:09.893Z,2.56
2022-12-08T16:41:55.501Z,2.56
2022-12-08T16:44:22.216Z,2.55
2022-12-08T16:46:49.101Z,2.54
2022-12-08T16:49:15.984Z,2.53
2022-12-08T16:51:44.247Z,2.51
2022-12-08T16:54:11.342Z,2.50
2022-12-08T16:56:38.088Z,2.49
2022-12-08T16:59:04.830Z,2.49
2022-12-08T17:01:31.832Z,2.49
2022-12-08T17:04:29.805Z,2.48
2022-12-08T17:06:45.776Z,2.47
2022-12-08T17:09:12.751Z,2.45
2022-12-08T17:11:43.264Z,2.43
2022-12-08T17:14:15.257Z,2.41
2022-12-08T17:16:44.036Z,2.39
2022-12-08T17:19:14.983Z,2.35
2022-12-08T17:21:44.110Z,2.30
2022-12-08T17:24:12.319Z,2.26
2022-12-08T17:26:40.725Z,2.21
2022-12-08T17:29:07.535Z,2.16
2022-12-08T17:31:34.365Z,2.12
2022-12-08T17:34:02.725Z,2.08
2022-12-08T17:36:30.725Z,2.06
2022-12-08T17:39:00.094Z,2.04
2022-12-08T17:41:27.897Z,2.03
2022-12-08T17:43:54.933Z,2.03
2022-12-08T17:46:22.549Z,2.01
2022-12-08T17:48:49.957Z,2.00
2022-12-08T17:51:16.939Z,1.99
2022-12-08T17:53:44.204Z,1.99
2022-12-08T17:56:18.163Z,2.00
2022-12-08T17:58:49.853Z,2.01
2022-12-08T18:01:22.950Z,2.02
2022-12-08T18:03:50.092Z,2.04
2022-12-08T18:06:16.984Z,2.04
2022-12-08T18:08:44.325Z,2.05
2022-12-08T18:11:17.748Z,2.05
2022-12-08T18:13:46.916Z,2.05
2022-12-08T18:16:14.641Z,2.04
2022-12-08T18:18:41.829Z,2.03
2022-12-08T18:21:10.047Z,2.03
2022-12-08T18:23:37.623Z,2.04
2022-12-08T18:26:06.211Z,2.06
2022-12-08T18:28:33.220Z,2.08
2022-12-08T18:31:00.862Z,2.10
2022-12-08T18:33:27.816Z,2.13
2022-12-08T18:35:54.729Z,2.16
2022-12-08T18:38:21.529Z,2.18
2022-12-08T18:40:48.319Z,2.21
2022-12-08T18:43:15.146Z,2.23
2022-12-08T18:45:42.001Z,2.25
2022-12-08T18:48:08.722Z,2.27
2022-12-08T18:50:35.496Z,2.28
2022-12-08T18:53:02.291Z,2.29
2022-12-08T18:55:28.998Z,2.30
2022-12-08T18:57:55.859Z,2.30
2022-12-08T19:00:22.803Z,2.30
2022-12-08T19:02:49.670Z,2.31
2022-12-08T19:05:16.840Z,2.32
2022-12-08T19:07:45.098Z,2.31
2022-12-08T19:10:12.323Z,2.30
2022-12-08T19:12:39.368Z,2.28
2022-12-08T19:15:06.802Z,2.28
2022-12-08T19:17:34.545Z,2.27
2022-12-08T19:20:01.408Z,2.26
2022-12-08T19:22:28.263Z,2.27
2022-12-08T19:24:55.264Z,2.27
2022-12-08T19:27:22.752Z,2.27
2022-12-08T19:29:49.524Z,2.26
2022-12-08T19:32:16.279Z,2.24
2022-12-08T19:34:43.227Z,2.21
2022-12-08T19:37:12.636Z,2.21
2022-12-08T19:39:58.437Z,2.20
2022-12-08T19:42:47.218Z,2.20
2022-12-08T19:45:19.216Z,2.20
2022-12-08T19:47:47.902Z,2.21
2022-12-08T19:50:35.202Z,2.23
2022-12-08T19:53:05.210Z,2.22
2022-12-08T19:55:32.703Z,2.23
2022-12-08T19:58:01.297Z,2.23
2022-12-08T20:00:31.008Z,2.23
2022-12-08T20:02:59.383Z,2.23
2022-12-08T20:05:26.367Z,2.19
2022-12-08T20:07:55.167Z,2.15
2022-12-08T20:10:33.998Z,2.12
2022-12-08T20:13:21.829Z,2.11
2022-12-08T20:15:49.370Z,2.09
2022-12-08T20:18:17.058Z,2.06
2022-12-08T20:20:45.786Z,2.04
2022-12-08T20:23:14.374Z,2.03
2022-12-08T20:25:43.893Z,2.02
2022-12-08T20:28:11.048Z,2.00
2022-12-08T20:30:40.279Z,1.98
2022-12-08T20:33:09.440Z,1.96
2022-12-08T20:35:36.119Z,1.93
2022-12-08T20:38:02.927Z,1.92
2022-12-08T20:40:29.745Z,1.90
2022-12-08T20:42:56.508Z,1.89
2022-12-08T20:45:23.258Z,1.87
2022-12-08T20:47:50.227Z,1.83
2022-12-08T20:50:17.014Z,1.81
2022-12-08T20:52:44.239Z,1.80
2022-12-08T20:55:11.201Z,1.80
2022-12-08T20:57:37.987Z,1.80
2022-12-08T21:00:06.715Z,1.80
2022-12-08T21:02:34.205Z,1.80
2022-12-08T21:05:01.208Z,1.81
2022-12-08T21:07:28.159Z,1.81
2022-12-08T21:09:55.071Z,1.82
2022-12-08T21:12:21.903Z,1.81
2022-12-08T21:14:48.655Z,1.81
2022-12-08T21:17:15.542Z,1.81
2022-12-08T21:19:42.482Z,1.81
2022-12-08T21:22:09.277Z,1.80
2022-12-08T21:24:36.728Z,1.79
2022-12-08T21:27:03.615Z,1.79
2022-12-08T21:29:30.749Z,1.78
2022-12-08T21:31:59.638Z,1.79
2022-12-08T21:34:36.456Z,1.78
2022-12-08T21:37:03.432Z,1.79
2022-12-08T21:39:30.523Z,1.78
2022-12-08T21:42:15.934Z,1.78
2022-12-08T21:44:43.311Z,1.77
2022-12-08T21:47:10.927Z,1.75
2022-12-08T21:49:38.221Z,1.73
2022-12-08T21:52:05.261Z,1.73
2022-12-08T21:54:32.200Z,1.73
2022-12-08T21:56:59.031Z,1.73
2022-12-08T21:59:26.237Z,1.73
2022-12-08T22:01:53.195Z,1.72
2022-12-08T22:04:24.790Z,1.72
2022-12-08T22:06:52.336Z,1.71
2022-12-08T22:09:19.408Z,1.70
2022-12-08T22:11:46.615Z,1.69
2022-12-08T22:14:15.182Z,1.68
2022-12-08T22:16:43.374Z,1.68
2022-12-08T22:19:11.711Z,1.68
2022-12-08T22:21:38.805Z,1.67
2022-12-08T22:24:05.882Z,1.67
2022-12-08T22:26:33.081Z,1.66
2022-12-08T22:29:00.413Z,1.65
2022-12-08T22:31:27.849Z,1.63
2022-12-08T22:33:55.424Z,1.61
2022-12-08T22:36:25.045Z,1.59
2022-12-08T22:38:53.479Z,1.55
2022-12-08T22:41:21.176Z,1.54
2022-12-08T22:43:49.437Z,1.53
2022-12-08T22:46:20.719Z,1.53
2022-12-08T22:48:48.538Z,1.51
2022-12-08T22:51:15.824Z,1.50
2022-12-08T22:53:44.565Z,1.51
2022-12-08T22:56:13.358Z,1.52
2022-12-08T22:58:41.349Z,1.51
2022-12-08T23:01:22.161Z,1.51
2022-12-08T23:03:49.575Z,1.52
2022-12-08T23:06:17.236Z,1.53
2022-12-08T23:08:44.781Z,1.54
2022-12-08T23:11:12.282Z,1.55
2022-12-08T23:13:39.962Z,1.54
2022-12-08T23:16:12.640Z,1.54
2022-12-08T23:18:41.787Z,1.55
2022-12-08T23:21:27.538Z,1.55
2022-12-08T23:23:54.784Z,1.56
2022-12-08T23:26:26.217Z,1.56
2022-12-08T23:28:56.420Z,1.59
2022-12-08T23:31:24.994Z,1.59
2022-12-08T23:33:53.371Z,1.59
2022-12-08T23:36:22.001Z,1.61
2022-12-08T23:38:49.007Z,1.61
2022-12-08T23:41:16.146Z,1.63
2022-12-08T23:43:48.846Z,1.66
2022-12-08T23:46:18.644Z,1.69
2022-12-08T23:48:46.029Z,1.72
2022-12-08T23:51:13.229Z,1.72
2022-12-08T23:53:40.175Z,1.72
2022-12-08T23:56:11.679Z,1.74
2022-12-08T23:58:43.256Z,1.75
